createdAt,value
2018-02-21T00:00:01.188Z,0.00
2018-02-21T00:01:01.193Z,0.00
2018-02-21T00:02:01.195Z,0.00
2018-02-21T00:03:01.196Z,0.00
2018-02-21T00:04:01.198Z,0.00
2018-02-21T00:05:01.197Z,0.00
2018-02-21T00:06:01.195Z,0.00
2018-02-21T00:07:01.201Z,0.00
2018-02-21T00:08:01.194Z,0.00
2018-02-21T00:09:01.198Z,0.00
2018-02-21T00:10:01.199Z,0.00
2018-02-21T00:11:01.206Z,0.00
2018-02-21T00:12:01.205Z,0.00
2018-02-21T00:13:01.201Z,0.00
2018-02-21T00:14:01.203Z,0.00
2018-02-21T00:15:01.210Z,0.00
2018-02-21T00:16:01.211Z,0.00
2018-02-21T00:17:01.207Z,0.00
2018-02-21T00:18:01.213Z,0.00
2018-02-21T00:19:01.216Z,0.00
2018-02-21T00:20:01.215Z,0.00
2018-02-21T00:21:01.216Z,0.00
2018-02-21T00:22:01.213Z,0.00
2018-02-21T00:23:01.324Z,0.00
2018-02-21T00:24:01.218Z,0.00
2018-02-21T00:25:01.226Z,0.00
2018-02-21T00:26:01.217Z,0.00
2018-02-21T00:27:01.222Z,0.00
2018-02-21T00:28:01.228Z,0.00
2018-02-21T00:29:01.225Z,0.00
2018-02-21T00:30:01.227Z,0.00
2018-02-21T00:31:01.228Z,0.00
2018-02-21T00:32:01.226Z,0.00
2018-02-21T00:33:01.225Z,0.00
2018-02-21T00:34:01.234Z,0.00
2018-02-21T00:35:01.227Z,0.00
2018-02-21T00:36:01.225Z,0.00
2018-02-21T00:37:01.232Z,0.00
2018-02-21T00:38:01.234Z,0.00
2018-02-21T00:39:01.230Z,0.00
2018-02-21T00:40:01.236Z,0.00
2018-02-21T00:41:01.239Z,0.00
2018-02-21T00:42:01.238Z,0.00
2018-02-21T00:43:01.239Z,0.00
2018-02-21T00:44:01.234Z,0.00
2018-02-21T00:45:01.235Z,0.00
2018-02-21T00:46:01.242Z,0.00
2018-02-21T00:47:01.244Z,0.00
2018-02-21T00:48:01.242Z,0.00
2018-02-21T00:49:01.244Z,0.00
2018-02-21T00:50:01.250Z,0.00
2018-02-21T00:51:01.242Z,0.00
2018-02-21T00:52:01.246Z,0.00
2018-02-21T00:53:01.249Z,0.00
2018-02-21T00:54:01.245Z,0.00
2018-02-21T00:55:01.244Z,0.00
2018-02-21T00:56:01.244Z,0.00
2018-02-21T00:57:01.250Z,0.00
2018-02-21T00:58:01.251Z,0.00
2018-02-21T00:59:01.252Z,0.00
2018-02-21T01:00:01.252Z,0.00
2018-02-21T01:01:01.254Z,0.00
2018-02-21T01:02:01.248Z,0.00
2018-02-21T01:03:01.252Z,0.00
2018-02-21T01:04:01.254Z,0.00
2018-02-21T01:05:01.255Z,0.00
2018-02-21T01:06:01.257Z,0.00
2018-02-21T01:07:01.258Z,0.00
2018-02-21T01:08:01.251Z,0.00
2018-02-21T01:09:01.253Z,0.00
2018-02-21T01:10:01.259Z,0.00
2018-02-21T01:11:01.262Z,0.00
2018-02-21T01:12:01.259Z,0.00
2018-02-21T01:13:01.255Z,0.00
2018-02-21T01:14:01.259Z,0.00
2018-02-21T01:15:01.262Z,0.00
2018-02-21T01:16:01.256Z,0.00
2018-02-21T01:17:01.260Z,0.00
2018-02-21T01:18:01.265Z,0.00
2018-02-21T01:19:01.264Z,0.00
2018-02-21T01:20:01.262Z,0.00
2018-02-21T01:21:01.259Z,0.00
2018-02-21T01:22:01.259Z,0.00
2018-02-21T01:23:01.261Z,0.00
2018-02-21T01:24:01.259Z,0.00
2018-02-21T01:25:01.261Z,0.00
2018-02-21T01:26:01.269Z,0.00
2018-02-21T01:27:01.267Z,0.00
2018-02-21T01:28:01.266Z,0.00
2018-02-21T01:29:01.265Z,0.00
2018-02-21T01:30:01.268Z,0.00
2018-02-21T01:31:01.271Z,0.00
2018-02-21T01:32:01.270Z,0.00
2018-02-21T01:33:01.270Z,0.00
2018-02-21T01:34:01.265Z,0.00
2018-02-21T01:35:01.272Z,0.00
2018-02-21T01:36:01.266Z,0.00
2018-02-21T01:37:01.266Z,0.00
2018-02-21T01:38:01.274Z,0.00
2018-02-21T01:39:01.273Z,0.00
2018-02-21T01:40:01.273Z,0.00
2018-02-21T01:41:01.268Z,0.00
2018-02-21T01:42:01.275Z,0.00
2018-02-21T01:43:01.275Z,0.00
2018-02-21T01:44:01.275Z,0.00
2018-02-21T01:45:01.271Z,0.00
2018-02-21T01:46:01.271Z,0.00
2018-02-21T01:47:01.272Z,0.00
2018-02-21T01:48:01.275Z,0.00
2018-02-21T01:49:01.272Z,0.00
2018-02-21T01:50:01.274Z,0.00
2018-02-21T01:51:01.277Z,0.00
2018-02-21T01:52:01.279Z,0.00
2018-02-21T01:53:01.274Z,0.00
2018-02-21T01:54:01.275Z,0.00
2018-02-21T01:55:01.274Z,0.00
2018-02-21T01:56:01.275Z,0.00
2018-02-21T01:57:01.283Z,0.00
2018-02-21T01:58:01.275Z,0.00
2018-02-21T01:59:01.281Z,0.00
2018-02-21T02:00:01.276Z,0.00
2018-02-21T02:01:01.277Z,0.00
2018-02-21T02:02:01.283Z,0.00
2018-02-21T02:03:01.278Z,0.00
2018-02-21T02:04:01.282Z,0.00
2018-02-21T02:05:01.277Z,0.00
2018-02-21T02:06:01.276Z,0.00
2018-02-21T02:07:01.279Z,0.00
2018-02-21T02:08:01.282Z,0.00
2018-02-21T02:09:01.277Z,0.00
2018-02-21T02:10:01.281Z,0.00
2018-02-21T02:11:01.285Z,0.00
2018-02-21T02:12:01.285Z,0.00
2018-02-21T02:13:01.278Z,0.00
2018-02-21T02:14:01.288Z,0.00
2018-02-21T02:15:01.281Z,0.00
2018-02-21T02:16:01.285Z,0.00
2018-02-21T02:17:01.289Z,0.00
2018-02-21T02:18:01.282Z,0.00
2018-02-21T02:19:01.281Z,0.00
2018-02-21T02:20:01.280Z,0.00
2018-02-21T02:21:01.287Z,0.00
2018-02-21T02:22:01.288Z,0.00
2018-02-21T02:23:01.287Z,0.00
2018-02-21T02:24:01.281Z,0.00
2018-02-21T02:25:01.288Z,0.00
2018-02-21T02:26:01.282Z,0.00
2018-02-21T02:27:01.283Z,0.00
2018-02-21T02:28:01.283Z,0.00
2018-02-21T02:29:01.290Z,0.00
2018-02-21T02:30:01.283Z,0.00
2018-02-21T02:31:01.289Z,0.00
2018-02-21T02:32:01.284Z,0.00
2018-02-21T02:33:01.286Z,0.00
2018-02-21T02:34:01.295Z,0.00
2018-02-21T02:35:01.297Z,0.00
2018-02-21T02:36:01.287Z,0.00
2018-02-21T02:37:01.289Z,0.00
2018-02-21T02:38:01.383Z,0.00
2018-02-21T02:39:01.286Z,0.00
2018-02-21T02:40:01.289Z,0.00
2018-02-21T02:41:01.286Z,0.00
2018-02-21T02:42:01.285Z,0.00
2018-02-21T02:43:01.285Z,0.00
2018-02-21T02:44:01.292Z,0.00
2018-02-21T02:45:01.287Z,0.00
2018-02-21T02:46:01.288Z,0.00
2018-02-21T02:47:01.291Z,0.00
2018-02-21T02:48:01.291Z,0.00
2018-02-21T02:49:01.293Z,0.00
2018-02-21T02:50:01.292Z,0.00
2018-02-21T02:51:01.294Z,0.00
2018-02-21T02:52:01.293Z,0.00
2018-02-21T02:53:01.289Z,0.00
2018-02-21T02:54:01.293Z,0.00
2018-02-21T02:55:01.293Z,0.00
2018-02-21T02:56:01.292Z,0.00
2018-02-21T02:57:01.293Z,0.00
2018-02-21T02:58:01.294Z,0.00
2018-02-21T02:59:01.296Z,0.00
2018-02-21T03:00:01.285Z,0.00
2018-02-21T03:01:01.292Z,0.00
2018-02-21T03:02:01.293Z,0.00
2018-02-21T03:03:01.293Z,0.00
2018-02-21T03:04:01.297Z,0.00
2018-02-21T03:05:01.293Z,0.00
2018-02-21T03:06:01.286Z,0.00
2018-02-21T03:07:01.289Z,0.00
2018-02-21T03:08:01.285Z,0.00
2018-02-21T03:09:01.295Z,0.00
2018-02-21T03:10:01.286Z,0.00
2018-02-21T03:11:01.286Z,0.00
2018-02-21T03:12:01.284Z,0.00
2018-02-21T03:13:01.287Z,0.00
2018-02-21T03:14:01.286Z,0.00
2018-02-21T03:15:01.291Z,0.00
2018-02-21T03:16:01.286Z,0.00
2018-02-21T03:17:01.287Z,0.00
2018-02-21T03:18:01.285Z,0.00
2018-02-21T03:19:01.285Z,0.00
2018-02-21T03:20:01.291Z,0.00
2018-02-21T03:21:01.294Z,0.00
2018-02-21T03:22:01.289Z,0.00
2018-02-21T03:23:01.291Z,0.00
2018-02-21T03:24:01.286Z,0.00
2018-02-21T03:25:01.285Z,0.00
2018-02-21T03:26:01.290Z,0.00
2018-02-21T03:27:01.291Z,0.00
2018-02-21T03:28:01.283Z,0.00
2018-02-21T03:29:01.283Z,0.00
2018-02-21T03:30:01.285Z,0.00
2018-02-21T03:31:01.284Z,0.00
2018-02-21T03:32:01.282Z,0.00
2018-02-21T03:33:01.283Z,0.00
2018-02-21T03:34:01.282Z,0.00
2018-02-21T03:35:01.288Z,0.00
2018-02-21T03:36:01.285Z,0.00
2018-02-21T03:37:01.280Z,0.00
2018-02-21T03:38:01.284Z,0.00
2018-02-21T03:39:01.279Z,0.00
2018-02-21T03:40:01.279Z,0.00
2018-02-21T03:41:01.278Z,0.00
2018-02-21T03:42:01.284Z,0.00
2018-02-21T03:43:01.281Z,0.00
2018-02-21T03:44:01.278Z,0.00
2018-02-21T03:45:01.278Z,0.00
2018-02-21T03:46:01.278Z,0.00
2018-02-21T03:47:01.278Z,0.00
2018-02-21T03:48:01.275Z,0.00
2018-02-21T03:49:01.276Z,0.00
2018-02-21T03:50:01.281Z,0.00
2018-02-21T03:51:01.280Z,0.00
2018-02-21T03:52:01.273Z,0.00
2018-02-21T03:53:01.282Z,0.00
2018-02-21T03:54:01.275Z,0.00
2018-02-21T03:55:01.281Z,0.00
2018-02-21T03:56:01.274Z,0.00
2018-02-21T03:57:01.277Z,0.00
2018-02-21T03:58:01.276Z,0.00
2018-02-21T03:59:01.273Z,0.00
2018-02-21T04:00:01.276Z,0.00
2018-02-21T04:01:01.276Z,0.00
2018-02-21T04:02:01.274Z,0.00
2018-02-21T04:03:01.271Z,0.00
2018-02-21T04:04:01.275Z,0.00
2018-02-21T04:05:01.269Z,0.00
2018-02-21T04:06:01.275Z,0.00
2018-02-21T04:07:01.267Z,0.00
2018-02-21T04:08:01.275Z,0.00
2018-02-21T04:09:01.272Z,0.00
2018-02-21T04:10:01.270Z,0.00
2018-02-21T04:11:01.276Z,0.00
2018-02-21T04:12:01.270Z,0.00
2018-02-21T04:13:01.270Z,0.00
2018-02-21T04:14:01.270Z,0.00
2018-02-21T04:15:01.269Z,0.00
2018-02-21T04:16:01.266Z,0.00
2018-02-21T04:17:01.263Z,0.00
2018-02-21T04:18:01.263Z,0.00
2018-02-21T04:19:01.266Z,0.00
2018-02-21T04:20:01.260Z,0.00
2018-02-21T04:21:01.261Z,0.00
2018-02-21T04:22:01.264Z,0.00
2018-02-21T04:23:01.258Z,0.00
2018-02-21T04:24:01.263Z,0.00
2018-02-21T04:25:01.263Z,0.00
2018-02-21T04:26:01.261Z,0.00
2018-02-21T04:27:01.257Z,0.00
2018-02-21T04:28:01.262Z,0.00
2018-02-21T04:29:01.253Z,0.00
2018-02-21T04:30:01.254Z,0.00
2018-02-21T04:31:01.266Z,0.00
2018-02-21T04:32:01.256Z,0.00
2018-02-21T04:33:01.256Z,0.00
2018-02-21T04:34:01.256Z,0.00
2018-02-21T04:35:01.249Z,0.00
2018-02-21T04:36:01.249Z,0.00
2018-02-21T04:37:01.247Z,0.00
2018-02-21T04:38:01.256Z,0.00
2018-02-21T04:39:01.252Z,0.00
2018-02-21T04:40:01.247Z,0.00
2018-02-21T04:41:01.246Z,0.00
2018-02-21T04:42:01.246Z,0.00
2018-02-21T04:43:01.243Z,0.00
2018-02-21T04:44:01.241Z,0.00
2018-02-21T04:45:01.247Z,0.00
2018-02-21T04:46:01.252Z,0.00
2018-02-21T04:47:01.246Z,0.00
2018-02-21T04:48:01.250Z,0.00
2018-02-21T04:49:01.238Z,0.00
2018-02-21T04:50:01.245Z,0.00
2018-02-21T04:51:01.242Z,0.00
2018-02-21T04:52:01.243Z,0.00
2018-02-21T04:53:01.240Z,0.00
2018-02-21T04:54:01.234Z,0.00
2018-02-21T04:55:01.240Z,0.00
2018-02-21T04:56:01.231Z,0.00
2018-02-21T04:57:01.231Z,0.00
2018-02-21T04:58:01.230Z,0.00
2018-02-21T04:59:01.233Z,0.00
2018-02-21T05:00:01.234Z,0.00
2018-02-21T05:01:01.267Z,0.00
2018-02-21T05:02:01.232Z,0.00
2018-02-21T05:03:01.231Z,0.00
2018-02-21T05:04:01.231Z,0.00
2018-02-21T05:05:01.222Z,0.00
2018-02-21T05:06:01.221Z,0.00
2018-02-21T05:07:01.228Z,0.00
2018-02-21T05:08:01.220Z,0.00
2018-02-21T05:09:01.226Z,0.00
2018-02-21T05:10:01.219Z,0.00
2018-02-21T05:11:01.224Z,0.00
2018-02-21T05:12:01.215Z,0.00
2018-02-21T05:13:01.215Z,0.00
2018-02-21T05:14:01.220Z,0.00
2018-02-21T05:15:01.219Z,0.00
2018-02-21T05:16:01.221Z,0.00
2018-02-21T05:17:01.213Z,0.00
2018-02-21T05:18:01.218Z,0.00
2018-02-21T05:19:01.210Z,0.00
2018-02-21T05:20:01.211Z,0.00
2018-02-21T05:21:01.214Z,0.00
2018-02-21T05:22:01.205Z,0.00
2018-02-21T05:23:01.210Z,0.00
2018-02-21T05:24:01.266Z,0.00
2018-02-21T05:25:01.203Z,0.00
2018-02-21T05:26:01.201Z,0.00
2018-02-21T05:27:01.202Z,0.00
2018-02-21T05:28:01.207Z,0.00
2018-02-21T05:29:01.205Z,0.00
2018-02-21T05:30:01.199Z,0.00
2018-02-21T05:31:01.202Z,0.00
2018-02-21T05:32:01.197Z,0.00
2018-02-21T05:33:01.196Z,0.00
2018-02-21T05:34:01.195Z,0.00
2018-02-21T05:35:01.199Z,0.00
2018-02-21T05:36:01.200Z,0.00
2018-02-21T05:37:01.196Z,0.00
2018-02-21T05:38:01.193Z,0.00
2018-02-21T05:39:01.197Z,0.00
2018-02-21T05:40:01.186Z,0.00
2018-02-21T05:41:01.186Z,0.00
2018-02-21T05:42:01.185Z,0.00
2018-02-21T05:43:01.183Z,0.00
2018-02-21T05:44:01.185Z,0.00
2018-02-21T05:45:01.180Z,0.00
2018-02-21T05:46:01.205Z,0.00
2018-02-21T05:47:01.183Z,0.00
2018-02-21T05:48:01.173Z,0.00
2018-02-21T05:49:01.175Z,0.00
2018-02-21T05:50:01.178Z,0.00
2018-02-21T05:51:01.172Z,0.00
2018-02-21T05:52:01.179Z,0.00
2018-02-21T05:53:01.168Z,0.00
2018-02-21T05:54:01.169Z,0.00
2018-02-21T05:55:01.171Z,0.00
2018-02-21T05:56:01.169Z,0.00
2018-02-21T05:57:01.179Z,0.00
2018-02-21T05:58:01.160Z,0.00
2018-02-21T05:59:01.160Z,0.00
2018-02-21T06:00:01.163Z,0.00
2018-02-21T06:01:01.166Z,0.00
2018-02-21T06:02:01.155Z,0.00
2018-02-21T06:03:01.155Z,0.00
2018-02-21T06:04:01.158Z,0.00
2018-02-21T06:05:01.154Z,0.00
2018-02-21T06:06:01.150Z,4.00
2018-02-21T06:07:01.156Z,0.00
2018-02-21T06:08:01.154Z,4.00
2018-02-21T06:09:01.152Z,4.00
2018-02-21T06:10:01.145Z,0.00
2018-02-21T06:11:01.145Z,0.00
2018-02-21T06:12:01.141Z,4.00
2018-02-21T06:13:01.146Z,4.00
2018-02-21T06:14:01.145Z,4.00
2018-02-21T06:15:01.145Z,4.00
2018-02-21T06:16:01.141Z,8.00
2018-02-21T06:17:01.136Z,8.00
2018-02-21T06:18:01.135Z,8.00
2018-02-21T06:19:01.140Z,12.00
2018-02-21T06:20:01.139Z,12.00
2018-02-21T06:21:01.130Z,12.00
2018-02-21T06:22:01.135Z,16.00
2018-02-21T06:23:01.135Z,16.00
2018-02-21T06:24:01.126Z,20.00
2018-02-21T06:25:01.178Z,20.00
2018-02-21T06:26:01.126Z,24.00
2018-02-21T06:27:01.123Z,24.00
2018-02-21T06:28:01.121Z,28.00
2018-02-21T06:29:01.120Z,28.00
2018-02-21T06:30:01.119Z,32.00
2018-02-21T06:31:01.123Z,36.00
2018-02-21T06:32:01.121Z,36.00
2018-02-21T06:33:01.120Z,40.00
2018-02-21T06:34:01.113Z,40.00
2018-02-21T06:35:01.121Z,44.00
2018-02-21T06:36:01.111Z,48.00
2018-02-21T06:37:01.109Z,52.00
2018-02-21T06:38:01.108Z,52.00
2018-02-21T06:39:01.113Z,56.00
2018-02-21T06:40:01.106Z,56.00
2018-02-21T06:41:01.105Z,64.00
2018-02-21T06:42:01.107Z,64.00
2018-02-21T06:43:01.103Z,68.00
2018-02-21T06:44:01.108Z,72.00
2018-02-21T06:45:01.099Z,72.00
2018-02-21T06:46:01.103Z,76.00
2018-02-21T06:47:01.100Z,80.00
2018-02-21T06:48:01.105Z,84.00
2018-02-21T06:49:01.100Z,88.00
2018-02-21T06:50:01.093Z,88.00
2018-02-21T06:51:01.097Z,92.00
2018-02-21T06:52:01.093Z,92.00
2018-02-21T06:53:01.089Z,96.00
2018-02-21T06:54:01.090Z,100.00
2018-02-21T06:55:01.085Z,104.00
2018-02-21T06:56:01.091Z,104.00
2018-02-21T06:57:01.081Z,108.00
2018-02-21T06:58:01.085Z,112.00
2018-02-21T06:59:01.085Z,116.00
2018-02-21T07:00:01.078Z,116.00
2018-02-21T07:01:01.077Z,120.00
2018-02-21T07:02:01.083Z,124.00
2018-02-21T07:03:01.079Z,128.00
2018-02-21T07:04:01.079Z,128.00
2018-02-21T07:05:01.072Z,132.00
2018-02-21T07:06:01.075Z,132.00
2018-02-21T07:07:01.075Z,136.00
2018-02-21T07:08:01.072Z,140.00
2018-02-21T07:09:01.064Z,140.00
2018-02-21T07:10:01.068Z,144.00
2018-02-21T07:11:01.066Z,148.00
2018-02-21T07:12:01.067Z,152.00
2018-02-21T07:13:01.060Z,148.00
2018-02-21T07:14:01.059Z,156.00
2018-02-21T07:15:01.062Z,156.00
2018-02-21T07:16:01.061Z,160.00
2018-02-21T07:17:01.060Z,160.00
2018-02-21T07:18:01.059Z,164.00
2018-02-21T07:19:01.060Z,164.00
2018-02-21T07:20:01.056Z,168.00
2018-02-21T07:21:01.054Z,172.00
2018-02-21T07:22:01.054Z,172.00
2018-02-21T07:23:01.047Z,176.00
2018-02-21T07:24:01.045Z,180.00
2018-02-21T07:25:01.044Z,184.00
2018-02-21T07:26:01.043Z,184.00
2018-02-21T07:27:01.048Z,188.00
2018-02-21T07:28:01.040Z,192.00
2018-02-21T07:29:01.044Z,192.00
2018-02-21T07:30:01.049Z,196.00
2018-02-21T07:31:01.036Z,200.00
2018-02-21T07:32:01.039Z,200.00
2018-02-21T07:33:01.033Z,204.00
2018-02-21T07:34:01.042Z,208.00
2018-02-21T07:35:01.038Z,208.00
2018-02-21T07:36:01.030Z,212.00
2018-02-21T07:37:01.032Z,216.00
2018-02-21T07:38:01.031Z,220.00
2018-02-21T07:39:01.026Z,224.00
2018-02-21T07:40:01.024Z,224.00
2018-02-21T07:41:01.023Z,228.00
2018-02-21T07:42:01.027Z,232.00
2018-02-21T07:43:01.021Z,232.00
2018-02-21T07:44:01.022Z,240.00
2018-02-21T07:45:01.017Z,240.00
2018-02-21T07:46:01.025Z,244.00
2018-02-21T07:47:01.017Z,248.00
2018-02-21T07:48:01.014Z,252.00
2018-02-21T07:49:01.031Z,252.00
2018-02-21T07:50:01.017Z,256.00
2018-02-21T07:51:01.025Z,264.00
2018-02-21T07:52:01.017Z,264.00
2018-02-21T07:53:01.014Z,268.00
2018-02-21T07:54:01.013Z,268.00
2018-02-21T07:55:01.007Z,276.00
2018-02-21T07:56:01.011Z,280.00
2018-02-21T07:57:01.010Z,280.00
2018-02-21T07:58:01.006Z,284.00
2018-02-21T07:59:01.003Z,284.00
2018-02-21T08:00:01.015Z,288.00
2018-02-21T08:01:01.039Z,300.00
2018-02-21T08:02:01.005Z,296.00
2018-02-21T08:03:01.059Z,300.00
2018-02-21T08:04:01.012Z,308.00
2018-02-21T08:05:01.026Z,424.00
2018-02-21T08:06:01.002Z,684.00
2018-02-21T08:07:01.002Z,832.00
2018-02-21T08:08:00.994Z,924.00
2018-02-21T08:09:00.993Z,984.00
2018-02-21T08:10:00.991Z,1008.00
2018-02-21T08:11:00.991Z,1032.00
2018-02-21T08:12:00.988Z,1052.00
2018-02-21T08:13:00.990Z,1076.00
2018-02-21T08:14:01.031Z,1096.00
2018-02-21T08:15:00.999Z,1100.00
2018-02-21T08:16:00.992Z,1104.00
2018-02-21T08:17:00.989Z,1104.00
2018-02-21T08:18:00.994Z,1180.00
2018-02-21T08:19:00.987Z,1212.00
2018-02-21T08:20:00.987Z,1212.00
2018-02-21T08:21:00.991Z,1236.00
2018-02-21T08:22:00.986Z,1244.00
2018-02-21T08:23:00.992Z,1284.00
2018-02-21T08:24:00.990Z,1300.00
2018-02-21T08:25:00.985Z,1316.00
2018-02-21T08:26:00.990Z,1332.00
2018-02-21T08:27:00.991Z,1356.00
2018-02-21T08:28:00.991Z,1384.00
2018-02-21T08:29:00.990Z,1424.00
2018-02-21T08:30:00.985Z,1452.00
2018-02-21T08:31:00.991Z,1468.00
2018-02-21T08:32:00.985Z,1492.00
2018-02-21T08:33:00.991Z,1520.00
2018-02-21T08:34:00.991Z,1544.00
2018-02-21T08:35:00.991Z,1564.00
2018-02-21T08:36:00.989Z,1592.00
2018-02-21T08:37:00.991Z,1608.00
2018-02-21T08:38:00.991Z,1636.00
2018-02-21T08:39:00.992Z,1660.00
2018-02-21T08:40:00.981Z,1688.00
2018-02-21T08:41:00.994Z,1704.00
2018-02-21T08:42:00.988Z,1732.00
2018-02-21T08:43:00.991Z,1760.00
2018-02-21T08:44:00.983Z,1776.00
2018-02-21T08:45:00.982Z,1800.00
2018-02-21T08:46:01.011Z,1828.00
2018-02-21T08:47:00.990Z,1864.00
2018-02-21T08:48:00.982Z,1892.00
2018-02-21T08:49:00.988Z,1912.00
2018-02-21T08:50:00.985Z,1952.00
2018-02-21T08:51:00.983Z,1980.00
2018-02-21T08:52:00.983Z,1976.00
2018-02-21T08:53:00.984Z,2008.00
2018-02-21T08:54:00.988Z,2040.00
2018-02-21T08:55:00.983Z,2048.00
2018-02-21T08:56:00.985Z,2064.00
2018-02-21T08:57:00.989Z,2108.00
2018-02-21T08:58:00.996Z,2152.00
2018-02-21T08:59:00.987Z,2168.00
2018-02-21T09:00:00.986Z,2204.00
2018-02-21T09:01:00.985Z,2232.00
2018-02-21T09:02:00.992Z,2252.00
2018-02-21T09:03:00.993Z,2280.00
2018-02-21T09:04:01.013Z,2304.00
2018-02-21T09:05:00.987Z,2316.00
2018-02-21T09:06:00.988Z,2336.00
2018-02-21T09:07:00.994Z,2368.00
2018-02-21T09:08:00.994Z,2372.00
2018-02-21T09:09:00.989Z,2400.00
2018-02-21T09:10:00.995Z,2416.00
2018-02-21T09:11:00.997Z,2448.00
2018-02-21T09:12:00.990Z,2484.00
2018-02-21T09:13:00.995Z,2484.00
2018-02-21T09:14:00.991Z,2532.00
2018-02-21T09:15:00.998Z,2532.00
2018-02-21T09:16:01.000Z,2564.00
2018-02-21T09:17:01.000Z,2600.00
2018-02-21T09:18:00.995Z,2624.00
2018-02-21T09:19:00.995Z,2640.00
2018-02-21T09:20:00.999Z,2676.00
2018-02-21T09:21:00.994Z,2696.00
2018-02-21T09:22:00.996Z,2700.00
2018-02-21T09:23:01.002Z,2728.00
2018-02-21T09:24:01.003Z,2756.00
2018-02-21T09:25:01.004Z,2768.00
2018-02-21T09:26:01.004Z,2804.00
2018-02-21T09:27:01.006Z,2828.00
2018-02-21T09:28:01.000Z,2844.00
2018-02-21T09:29:01.008Z,2868.00
2018-02-21T09:30:01.004Z,2896.00
2018-02-21T09:31:01.008Z,2912.00
2018-02-21T09:32:01.010Z,2932.00
2018-02-21T09:33:01.012Z,2960.00
2018-02-21T09:34:01.014Z,2984.00
2018-02-21T09:35:01.013Z,2988.00
2018-02-21T09:36:01.014Z,3016.00
2018-02-21T09:37:01.043Z,3044.00
2018-02-21T09:38:01.017Z,3052.00
2018-02-21T09:39:01.014Z,3072.00
2018-02-21T09:40:01.013Z,3084.00
2018-02-21T09:41:01.016Z,3108.00
2018-02-21T09:42:01.022Z,3128.00
2018-02-21T09:43:01.024Z,3144.00
2018-02-21T09:44:01.028Z,3164.00
2018-02-21T09:45:01.024Z,3184.00
2018-02-21T09:46:01.030Z,3192.00
2018-02-21T09:47:01.024Z,3212.00
2018-02-21T09:48:01.023Z,3240.00
2018-02-21T09:49:01.025Z,3256.00
2018-02-21T09:50:01.027Z,3272.00
2018-02-21T09:51:01.029Z,3304.00
2018-02-21T09:52:01.042Z,3320.00
2018-02-21T09:53:01.036Z,3344.00
2018-02-21T09:54:01.035Z,3368.00
2018-02-21T09:55:01.034Z,3380.00
2018-02-21T09:56:01.033Z,3408.00
2018-02-21T09:57:01.037Z,3436.00
2018-02-21T09:58:01.044Z,3460.00
2018-02-21T09:59:01.039Z,3476.00
2018-02-21T10:00:01.039Z,3500.00
2018-02-21T10:01:01.044Z,3516.00
2018-02-21T10:02:01.043Z,3544.00
2018-02-21T10:03:01.045Z,3560.00
2018-02-21T10:04:01.053Z,3596.00
2018-02-21T10:05:01.048Z,3608.00
2018-02-21T10:06:01.053Z,3640.00
2018-02-21T10:07:01.057Z,3656.00
2018-02-21T10:08:01.058Z,3684.00
2018-02-21T10:09:01.057Z,3700.00
2018-02-21T10:10:01.059Z,3720.00
2018-02-21T10:11:01.061Z,3736.00
2018-02-21T10:12:01.062Z,3764.00
2018-02-21T10:13:01.070Z,3772.00
2018-02-21T10:14:01.066Z,3792.00
2018-02-21T10:15:01.075Z,3820.00
2018-02-21T10:16:01.079Z,3836.00
2018-02-21T10:17:01.081Z,3852.00
2018-02-21T10:18:01.080Z,3876.00
2018-02-21T10:19:01.079Z,3876.00
2018-02-21T10:20:01.080Z,3900.00
2018-02-21T10:21:01.090Z,3912.00
2018-02-21T10:22:01.086Z,3924.00
2018-02-21T10:23:01.088Z,3932.00
2018-02-21T10:24:01.091Z,3956.00
2018-02-21T10:25:01.096Z,3972.00
2018-02-21T10:26:01.098Z,3976.00
2018-02-21T10:27:01.107Z,4000.00
2018-02-21T10:28:01.112Z,4008.00
2018-02-21T10:29:01.106Z,4020.00
2018-02-21T10:30:01.120Z,4040.00
2018-02-21T10:31:01.120Z,4044.00
2018-02-21T10:32:01.127Z,4060.00
2018-02-21T10:33:01.117Z,4068.00
2018-02-21T10:34:01.120Z,4076.00
2018-02-21T10:35:01.132Z,4068.00
2018-02-21T10:36:01.132Z,4096.00
2018-02-21T10:37:01.132Z,4112.00
2018-02-21T10:38:01.133Z,4108.00
2018-02-21T10:39:01.138Z,4112.00
2018-02-21T10:40:01.148Z,4128.00
2018-02-21T10:41:01.148Z,4144.00
2018-02-21T10:42:01.153Z,4152.00
2018-02-21T10:43:01.159Z,4160.00
2018-02-21T10:44:01.153Z,4168.00
2018-02-21T10:45:01.162Z,4160.00
2018-02-21T10:46:01.163Z,4164.00
2018-02-21T10:47:01.176Z,4176.00
2018-02-21T10:48:01.171Z,4180.00
2018-02-21T10:49:01.176Z,4184.00
2018-02-21T10:50:01.175Z,4200.00
2018-02-21T10:51:01.179Z,4196.00
2018-02-21T10:52:01.187Z,4208.00
2018-02-21T10:53:01.186Z,4220.00
2018-02-21T10:54:01.193Z,4224.00
2018-02-21T10:55:01.199Z,4232.00
2018-02-21T10:56:01.198Z,4232.00
2018-02-21T10:57:01.205Z,4252.00
2018-02-21T10:58:01.213Z,4256.00
2018-02-21T10:59:01.215Z,4260.00
2018-02-21T11:00:01.220Z,4276.00
2018-02-21T11:01:01.216Z,4268.00
2018-02-21T11:02:01.221Z,4272.00
2018-02-21T11:03:01.224Z,4280.00
2018-02-21T11:04:01.233Z,4292.00
2018-02-21T11:05:01.234Z,4288.00
2018-02-21T11:06:01.242Z,4292.00
2018-02-21T11:07:01.248Z,4292.00
2018-02-21T11:08:01.252Z,4304.00
2018-02-21T11:09:01.252Z,4308.00
2018-02-21T11:10:01.260Z,4312.00
2018-02-21T11:11:01.260Z,4312.00
2018-02-21T11:12:01.269Z,4312.00
2018-02-21T11:13:01.274Z,4328.00
2018-02-21T11:14:01.279Z,4312.00
2018-02-21T11:15:01.280Z,4320.00
2018-02-21T11:16:01.281Z,4320.00
2018-02-21T11:17:01.288Z,4328.00
2018-02-21T11:18:01.294Z,4336.00
2018-02-21T11:19:01.299Z,4328.00
2018-02-21T11:20:01.300Z,4340.00
2018-02-21T11:21:01.305Z,4336.00
2018-02-21T11:22:01.313Z,4328.00
2018-02-21T11:23:01.318Z,4344.00
2018-02-21T11:24:01.315Z,4340.00
2018-02-21T11:25:01.322Z,4332.00
2018-02-21T11:26:01.326Z,4340.00
2018-02-21T11:27:01.336Z,4328.00
2018-02-21T11:28:01.339Z,4324.00
2018-02-21T11:29:01.342Z,4324.00
2018-02-21T11:30:01.354Z,4332.00
2018-02-21T11:31:01.350Z,4340.00
2018-02-21T11:32:01.356Z,4340.00
2018-02-21T11:33:01.359Z,4320.00
2018-02-21T11:34:01.370Z,4336.00
2018-02-21T11:35:01.380Z,4336.00
2018-02-21T11:36:01.381Z,4328.00
2018-02-21T11:37:01.390Z,4328.00
2018-02-21T11:38:01.392Z,4332.00
2018-02-21T11:39:01.391Z,4324.00
2018-02-21T11:40:01.403Z,4328.00
2018-02-21T11:41:01.402Z,4340.00
2018-02-21T11:42:01.411Z,4332.00
2018-02-21T11:43:01.422Z,4336.00
2018-02-21T11:44:01.427Z,4332.00
2018-02-21T11:45:01.433Z,4324.00
2018-02-21T11:46:01.436Z,4340.00
2018-02-21T11:47:01.441Z,4332.00
2018-02-21T11:48:01.453Z,4320.00
2018-02-21T11:49:01.460Z,4324.00
2018-02-21T11:50:01.466Z,4324.00
2018-02-21T11:51:01.473Z,4320.00
2018-02-21T11:52:01.480Z,4320.00
2018-02-21T11:53:01.479Z,4316.00
2018-02-21T11:54:01.491Z,4316.00
2018-02-21T11:55:01.499Z,4304.00
2018-02-21T11:56:01.503Z,4300.00
2018-02-21T11:57:01.509Z,4312.00
2018-02-21T11:58:01.512Z,4300.00
2018-02-21T11:59:01.516Z,4304.00
2018-02-21T12:00:01.528Z,4308.00
2018-02-21T12:01:01.539Z,4304.00
2018-02-21T12:02:01.539Z,4296.00
2018-02-21T12:03:01.545Z,4296.00
2018-02-21T12:04:01.547Z,4296.00
2018-02-21T12:05:01.559Z,4288.00
2018-02-21T12:06:01.560Z,4276.00
2018-02-21T12:07:01.569Z,4284.00
2018-02-21T12:08:01.572Z,4284.00
2018-02-21T12:09:01.575Z,4272.00
2018-02-21T12:10:01.605Z,4268.00
2018-02-21T12:11:01.593Z,4268.00
2018-02-21T12:12:01.602Z,4272.00
2018-02-21T12:13:01.607Z,4268.00
2018-02-21T12:14:01.613Z,4264.00
2018-02-21T12:15:01.613Z,4264.00
2018-02-21T12:16:01.652Z,4260.00
2018-02-21T12:17:01.628Z,4252.00
2018-02-21T12:18:01.632Z,4256.00
2018-02-21T12:19:01.640Z,4248.00
2018-02-21T12:20:01.651Z,4240.00
2018-02-21T12:21:01.659Z,4232.00
2018-02-21T12:22:01.665Z,4240.00
2018-02-21T12:23:01.670Z,4232.00
2018-02-21T12:24:01.671Z,4220.00
2018-02-21T12:25:01.705Z,4232.00
2018-02-21T12:26:01.690Z,4220.00
2018-02-21T12:27:01.740Z,4220.00
2018-02-21T12:28:01.701Z,4220.00
2018-02-21T12:29:01.705Z,4216.00
2018-02-21T12:30:01.715Z,4212.00
2018-02-21T12:31:01.723Z,4200.00
2018-02-21T12:32:01.729Z,4204.00
2018-02-21T12:33:01.734Z,4204.00
2018-02-21T12:34:01.736Z,4196.00
2018-02-21T12:35:01.744Z,4188.00
2018-02-21T12:36:01.750Z,4184.00
2018-02-21T12:37:01.756Z,4176.00
2018-02-21T12:38:01.764Z,4172.00
2018-02-21T12:39:01.777Z,4172.00
2018-02-21T12:40:01.782Z,4156.00
2018-02-21T12:41:01.788Z,4156.00
2018-02-21T12:42:01.803Z,4148.00
2018-02-21T12:43:01.808Z,4144.00
2018-02-21T12:44:01.812Z,4152.00